createdAt,value
2023-04-30T00:00:48.169Z,35.55
2023-04-30T00:01:48.173Z,35.54
2023-04-30T00:02:48.218Z,35.55
2023-04-30T00:03:48.224Z,35.56
2023-04-30T00:04:48.203Z,35.55
2023-04-30T00:05:48.211Z,35.57
2023-04-30T00:06:48.212Z,35.55
2023-04-30T00:07:48.239Z,35.57
2023-04-30T00:08:48.286Z,35.58
2023-04-30T00:09:48.289Z,35.56
2023-04-30T00:10:48.320Z,35.57
2023-04-30T00:11:48.338Z,35.56
2023-04-30T00:12:48.330Z,35.56
2023-04-30T00:13:48.368Z,35.57
2023-04-30T00:14:48.392Z,35.60
2023-04-30T00:15:48.382Z,35.58
2023-04-30T00:16:48.441Z,35.58
2023-04-30T00:17:48.503Z,35.58
2023-04-30T00:18:48.471Z,35.59
2023-04-30T00:19:48.472Z,35.61
2023-04-30T00:20:48.501Z,35.59
2023-04-30T00:21:48.543Z,35.62
2023-04-30T00:22:48.545Z,35.61
2023-04-30T00:23:48.564Z,35.64
2023-04-30T00:24:48.590Z,35.63
2023-04-30T00:25:48.602Z,35.63
2023-04-30T00:26:48.641Z,35.63
2023-04-30T00:27:48.622Z,35.63
2023-04-30T00:28:48.649Z,35.63
2023-04-30T00:29:48.657Z,35.62
2023-04-30T00:30:48.672Z,35.62
2023-04-30T00:31:48.689Z,35.63
2023-04-30T00:32:48.848Z,35.60
2023-04-30T00:33:48.743Z,35.63
2023-04-30T00:34:48.709Z,35.62
2023-04-30T00:35:48.741Z,35.62
2023-04-30T00:36:48.782Z,35.63
2023-04-30T00:37:48.787Z,35.66
2023-04-30T00:38:48.855Z,35.64
2023-04-30T00:39:48.820Z,35.66
2023-04-30T00:40:48.837Z,35.65
2023-04-30T00:41:48.837Z,35.63
2023-04-30T00:42:48.901Z,35.63
2023-04-30T00:43:48.870Z,35.67
2023-04-30T00:44:48.905Z,35.67
2023-04-30T00:45:48.975Z,35.67
2023-04-30T00:46:48.959Z,35.68
2023-04-30T00:47:48.972Z,35.65
2023-04-30T00:48:48.987Z,35.65
2023-04-30T00:49:48.965Z,35.68
2023-04-30T00:50:48.995Z,35.66
2023-04-30T00:51:49.040Z,35.72
2023-04-30T00:52:49.048Z,35.68
2023-04-30T00:53:49.059Z,35.67
2023-04-30T00:54:49.056Z,35.70
2023-04-30T00:55:49.075Z,35.70
2023-04-30T00:56:49.099Z,35.71
2023-04-30T00:57:49.114Z,35.73
2023-04-30T00:58:49.143Z,35.72
2023-04-30T00:59:49.186Z,35.72
2023-04-30T01:00:49.166Z,35.70
2023-04-30T01:01:49.206Z,35.71
2023-04-30T01:02:49.231Z,35.74
2023-04-30T01:03:49.242Z,35.71
2023-04-30T01:04:49.227Z,35.70
2023-04-30T01:05:49.236Z,35.70
2023-04-30T01:06:49.273Z,35.70
2023-04-30T01:07:49.292Z,35.70
2023-04-30T01:08:49.337Z,35.72
2023-04-30T01:09:49.398Z,35.71
2023-04-30T01:10:49.416Z,35.73
2023-04-30T01:11:49.410Z,35.71
2023-04-30T01:12:49.455Z,35.73
2023-04-30T01:13:49.485Z,35.74
2023-04-30T01:14:49.464Z,35.73
2023-04-30T01:15:49.535Z,35.75
2023-04-30T01:16:49.531Z,35.75
2023-04-30T01:17:49.611Z,35.73
2023-04-30T01:18:49.605Z,35.76
2023-04-30T01:19:49.566Z,35.75
2023-04-30T01:20:49.592Z,35.77
2023-04-30T01:21:49.607Z,35.78
2023-04-30T01:22:49.620Z,35.76
2023-04-30T01:23:49.647Z,35.77
2023-04-30T01:24:49.658Z,35.76
2023-04-30T01:25:49.677Z,35.78
2023-04-30T01:26:49.714Z,35.78
2023-04-30T01:27:49.725Z,35.78
2023-04-30T01:28:49.741Z,35.80
2023-04-30T01:29:49.752Z,35.80
2023-04-30T01:30:49.745Z,35.81
2023-04-30T01:31:49.814Z,35.80
2023-04-30T01:32:49.843Z,35.80
2023-04-30T01:33:49.822Z,35.80
2023-04-30T01:34:49.802Z,35.79
2023-04-30T01:35:49.854Z,35.77
2023-04-30T01:36:49.856Z,35.76
2023-04-30T01:37:49.859Z,35.76
2023-04-30T01:38:49.860Z,35.79
2023-04-30T01:39:49.917Z,35.78
2023-04-30T01:40:49.926Z,35.79
2023-04-30T01:41:49.945Z,35.81
2023-04-30T01:42:49.966Z,35.81
2023-04-30T01:43:50.008Z,35.81
2023-04-30T01:44:49.982Z,35.82
2023-04-30T01:45:50.042Z,35.80
2023-04-30T01:46:50.007Z,35.78
2023-04-30T01:47:50.073Z,35.80
2023-04-30T01:48:50.051Z,35.81
2023-04-30T01:49:50.092Z,35.85
2023-04-30T01:50:50.099Z,35.80
2023-04-30T01:51:50.128Z,35.82
2023-04-30T01:52:50.114Z,35.82
2023-04-30T01:53:50.139Z,35.83
2023-04-30T01:54:50.162Z,35.83
2023-04-30T01:55:50.175Z,35.81
2023-04-30T01:56:50.259Z,35.85
2023-04-30T01:57:50.227Z,35.84
2023-04-30T01:58:50.320Z,35.80
2023-04-30T01:59:50.243Z,35.82
2023-04-30T02:00:50.280Z,35.82
2023-04-30T02:01:50.368Z,35.81
2023-04-30T02:02:50.377Z,35.80
2023-04-30T02:03:50.454Z,35.83
2023-04-30T02:04:50.337Z,35.81
2023-04-30T02:05:50.380Z,35.80
2023-04-30T02:06:50.464Z,35.83
2023-04-30T02:07:50.422Z,35.81
2023-04-30T02:08:50.433Z,35.81
2023-04-30T02:09:50.461Z,35.84
2023-04-30T02:10:50.504Z,35.84
2023-04-30T02:11:50.510Z,35.83
2023-04-30T02:12:50.536Z,35.82
2023-04-30T02:13:50.578Z,35.85
2023-04-30T02:14:50.583Z,35.86
2023-04-30T02:15:50.597Z,35.85
2023-04-30T02:16:50.604Z,35.86
2023-04-30T02:17:50.688Z,35.86
2023-04-30T02:18:50.615Z,35.83
2023-04-30T02:19:50.641Z,35.85
2023-04-30T02:20:50.649Z,35.85
2023-04-30T02:21:50.654Z,35.85
2023-04-30T02:22:50.776Z,35.84
2023-04-30T02:23:50.713Z,35.86
2023-04-30T02:24:50.716Z,35.87
2023-04-30T02:25:50.700Z,35.87
2023-04-30T02:26:50.762Z,35.85
2023-04-30T02:27:50.736Z,35.83
2023-04-30T02:28:50.734Z,35.85
2023-04-30T02:29:50.708Z,35.85
2023-04-30T02:30:50.686Z,35.85
2023-04-30T02:31:50.795Z,35.86
2023-04-30T02:32:50.757Z,35.85
2023-04-30T02:33:50.732Z,35.85
2023-04-30T02:34:50.742Z,35.85
2023-04-30T02:35:50.756Z,35.85
2023-04-30T02:36:50.780Z,35.86
2023-04-30T02:37:50.783Z,35.86
2023-04-30T02:38:50.774Z,35.86
2023-04-30T02:39:50.826Z,35.88
2023-04-30T02:40:50.870Z,35.83
2023-04-30T02:41:50.822Z,35.83
2023-04-30T02:42:50.846Z,35.85
2023-04-30T02:43:50.857Z,35.84
2023-04-30T02:44:50.898Z,35.85
2023-04-30T02:45:50.894Z,35.84
2023-04-30T02:46:50.902Z,35.86
2023-04-30T02:47:50.981Z,35.86
2023-04-30T02:48:50.952Z,35.84
2023-04-30T02:49:50.929Z,35.83
2023-04-30T02:50:50.966Z,35.85
2023-04-30T02:51:50.952Z,35.86
2023-04-30T02:52:50.955Z,35.84
2023-04-30T02:53:50.980Z,35.85
2023-04-30T02:54:50.985Z,35.85
2023-04-30T02:55:51.009Z,35.85
2023-04-30T02:56:50.999Z,35.87
2023-04-30T02:57:51.043Z,35.85
2023-04-30T02:58:51.078Z,35.87
2023-04-30T02:59:51.084Z,35.87
2023-04-30T03:00:51.204Z,35.88
2023-04-30T03:01:51.131Z,35.87
2023-04-30T03:02:51.166Z,35.86
2023-04-30T03:03:51.136Z,35.86
2023-04-30T03:04:51.128Z,35.84
2023-04-30T03:05:51.160Z,35.86
2023-04-30T03:06:51.197Z,35.89
2023-04-30T03:07:51.159Z,35.87
2023-04-30T03:08:51.224Z,35.87
2023-04-30T03:09:51.190Z,35.87
2023-04-30T03:10:51.228Z,35.86
2023-04-30T03:11:51.246Z,35.87
2023-04-30T03:12:51.263Z,35.89
2023-04-30T03:13:51.250Z,35.87
2023-04-30T03:14:51.285Z,35.87
2023-04-30T03:15:51.369Z,35.86
2023-04-30T03:16:51.290Z,35.85
2023-04-30T03:17:51.355Z,35.85
2023-04-30T03:18:51.344Z,35.86
2023-04-30T03:19:51.389Z,35.86
2023-04-30T03:20:51.382Z,35.85
2023-04-30T03:21:51.403Z,35.87
2023-04-30T03:22:51.453Z,35.84
2023-04-30T03:23:51.478Z,35.82
2023-04-30T03:24:51.469Z,35.85
2023-04-30T03:25:51.474Z,35.83
2023-04-30T03:26:51.506Z,35.84
2023-04-30T03:27:51.531Z,35.85
2023-04-30T03:28:51.560Z,35.85
2023-04-30T03:29:51.594Z,35.86
2023-04-30T03:30:51.551Z,35.84
2023-04-30T03:31:51.713Z,35.83
2023-04-30T03:32:51.636Z,35.84
2023-04-30T03:33:51.674Z,35.85
2023-04-30T03:34:51.657Z,35.85
2023-04-30T03:35:51.662Z,35.86
2023-04-30T03:36:51.694Z,35.86
2023-04-30T03:37:51.717Z,35.86
2023-04-30T03:38:51.727Z,35.85
2023-04-30T03:39:51.774Z,35.85
2023-04-30T03:40:51.744Z,35.85
2023-04-30T03:41:51.776Z,35.86
2023-04-30T03:42:51.775Z,35.86
2023-04-30T03:43:51.838Z,35.86
2023-04-30T03:44:51.853Z,35.84
2023-04-30T03:45:51.893Z,35.83
2023-04-30T03:46:51.856Z,35.83
2023-04-30T03:47:51.968Z,35.82
2023-04-30T03:48:51.898Z,35.83
2023-04-30T03:49:52.084Z,35.85
2023-04-30T03:50:51.933Z,35.81
2023-04-30T03:51:51.978Z,35.82
2023-04-30T03:52:51.968Z,35.82
2023-04-30T03:53:51.965Z,35.83
2023-04-30T03:54:51.995Z,35.81
2023-04-30T03:55:52.022Z,35.80
2023-04-30T03:56:52.064Z,35.80
2023-04-30T03:57:52.048Z,35.82
2023-04-30T03:58:52.081Z,35.80
2023-04-30T03:59:52.249Z,35.80
2023-04-30T04:00:52.083Z,35.81
2023-04-30T04:01:52.148Z,35.79
2023-04-30T04:02:52.171Z,35.82
2023-04-30T04:03:52.139Z,35.78
2023-04-30T04:04:52.118Z,35.78
2023-04-30T04:05:52.167Z,35.76
2023-04-30T04:06:52.159Z,35.77
2023-04-30T04:07:52.140Z,35.78
2023-04-30T04:08:52.169Z,35.77
2023-04-30T04:09:52.375Z,35.78
2023-04-30T04:10:52.169Z,35.77
2023-04-30T04:11:52.227Z,35.76
2023-04-30T04:12:52.230Z,35.78
2023-04-30T04:13:52.211Z,35.76
2023-04-30T04:14:52.191Z,35.78
2023-04-30T04:15:52.279Z,35.75
2023-04-30T04:16:52.251Z,35.77
2023-04-30T04:17:52.298Z,35.75
2023-04-30T04:18:52.291Z,35.75
2023-04-30T04:19:52.468Z,35.73
2023-04-30T04:20:52.289Z,35.71
2023-04-30T04:21:52.332Z,35.72
2023-04-30T04:22:52.313Z,35.72
2023-04-30T04:23:52.329Z,35.72
2023-04-30T04:24:52.347Z,35.71
2023-04-30T04:25:52.357Z,35.74
2023-04-30T04:26:52.314Z,35.70
2023-04-30T04:27:52.341Z,35.72
2023-04-30T04:28:52.349Z,35.69
2023-04-30T04:29:52.490Z,35.68
2023-04-30T04:30:52.385Z,35.70
2023-04-30T04:31:52.425Z,35.68
2023-04-30T04:32:52.528Z,35.68
2023-04-30T04:33:52.442Z,35.68
2023-04-30T04:34:52.464Z,35.68
2023-04-30T04:35:52.493Z,35.69
2023-04-30T04:36:52.489Z,35.68
2023-04-30T04:37:52.497Z,35.66
2023-04-30T04:38:52.546Z,35.62
2023-04-30T04:39:52.823Z,35.65
2023-04-30T04:40:52.555Z,35.63
2023-04-30T04:41:52.563Z,35.64
2023-04-30T04:42:52.583Z,35.65
2023-04-30T04:43:52.652Z,35.62
2023-04-30T04:44:52.617Z,35.63
2023-04-30T04:45:52.712Z,35.63
2023-04-30T04:46:52.737Z,35.61
2023-04-30T04:47:52.759Z,35.58
2023-04-30T04:48:52.716Z,35.62
2023-04-30T04:49:52.917Z,35.62
2023-04-30T04:50:52.729Z,35.60
2023-04-30T04:51:52.745Z,35.59
2023-04-30T04:52:52.797Z,35.60
2023-04-30T04:53:52.814Z,35.60
2023-04-30T04:54:52.984Z,35.58
2023-04-30T04:55:52.827Z,35.56
2023-04-30T04:56:52.821Z,35.56
2023-04-30T04:57:52.838Z,35.56
2023-04-30T04:58:52.856Z,35.59
2023-04-30T04:59:53.158Z,35.57
2023-04-30T05:00:52.907Z,35.58
2023-04-30T05:01:52.956Z,35.55
2023-04-30T05:02:53.012Z,35.55
2023-04-30T05:03:53.030Z,35.54
2023-04-30T05:04:52.940Z,35.53
2023-04-30T05:05:52.943Z,35.54
2023-04-30T05:06:52.948Z,35.51
2023-04-30T05:07:52.987Z,35.52
2023-04-30T05:08:52.997Z,35.50
2023-04-30T05:09:53.205Z,35.52
2023-04-30T05:10:53.129Z,35.49
2023-04-30T05:11:53.017Z,35.51
2023-04-30T05:12:53.053Z,35.50
2023-04-30T05:13:53.107Z,35.50
2023-04-30T05:14:53.111Z,35.49
2023-04-30T05:15:53.156Z,35.47
2023-04-30T05:16:53.109Z,35.47
2023-04-30T05:17:53.173Z,35.50
2023-04-30T05:18:53.205Z,35.49
2023-04-30T05:19:53.485Z,35.49
2023-04-30T05:20:53.157Z,35.48
2023-04-30T05:21:53.172Z,35.48
2023-04-30T05:22:53.192Z,35.47
2023-04-30T05:23:53.248Z,35.48
2023-04-30T05:24:53.991Z,35.46
2023-04-30T05:25:53.244Z,35.45
2023-04-30T05:26:53.265Z,35.46
2023-04-30T05:27:53.294Z,35.45
2023-04-30T05:28:53.342Z,35.43
2023-04-30T05:29:53.405Z,35.46
2023-04-30T05:30:53.315Z,35.44
2023-04-30T05:31:53.407Z,35.42
2023-04-30T05:32:53.396Z,35.41
2023-04-30T05:33:53.370Z,35.41
2023-04-30T05:34:53.375Z,35.40
2023-04-30T05:35:53.377Z,35.40
2023-04-30T05:36:53.379Z,35.39
2023-04-30T05:37:53.428Z,35.39
2023-04-30T05:38:53.468Z,35.38
2023-04-30T05:39:53.576Z,35.38
2023-04-30T05:40:53.465Z,35.37
2023-04-30T05:41:53.593Z,35.36
2023-04-30T05:42:53.610Z,35.36
2023-04-30T05:43:53.547Z,35.34
2023-04-30T05:44:53.546Z,35.34
2023-04-30T05:45:53.573Z,35.34
2023-04-30T05:46:53.582Z,35.28
2023-04-30T05:47:53.628Z,35.33
2023-04-30T05:48:53.584Z,35.35
2023-04-30T05:49:53.797Z,35.37
2023-04-30T05:50:53.557Z,35.30
2023-04-30T05:51:53.562Z,35.32
2023-04-30T05:52:53.599Z,35.32
2023-04-30T05:53:53.632Z,35.34
2023-04-30T05:54:53.648Z,35.33
2023-04-30T05:55:53.626Z,35.29
2023-04-30T05:56:53.604Z,35.32
2023-04-30T05:57:53.629Z,35.30
2023-04-30T05:58:53.663Z,35.28
2023-04-30T05:59:53.934Z,35.29
2023-04-30T06:00:54.579Z,35.30
2023-04-30T06:01:53.772Z,35.29
2023-04-30T06:02:53.775Z,35.29
2023-04-30T06:03:53.813Z,35.28
2023-04-30T06:04:53.814Z,35.26
2023-04-30T06:05:53.786Z,35.27
2023-04-30T06:06:53.838Z,35.26
2023-04-30T06:07:53.842Z,35.27
2023-04-30T06:08:53.843Z,35.28
2023-04-30T06:09:54.035Z,35.24
2023-04-30T06:10:53.878Z,35.25
2023-04-30T06:11:53.886Z,35.25
2023-04-30T06:12:53.925Z,35.25
2023-04-30T06:13:53.919Z,35.24
2023-04-30T06:14:53.923Z,35.22
2023-04-30T06:15:53.961Z,35.23
2023-04-30T06:16:54.111Z,35.22
2023-04-30T06:17:54.025Z,35.23
2023-04-30T06:18:54.204Z,35.23
2023-04-30T06:19:54.156Z,35.24
2023-04-30T06:20:53.940Z,35.23
2023-04-30T06:21:53.965Z,35.22
2023-04-30T06:22:53.981Z,35.21
2023-04-30T06:23:53.924Z,35.23
2023-04-30T06:24:53.953Z,35.23
2023-04-30T06:25:53.934Z,35.21
2023-04-30T06:26:53.953Z,35.22
2023-04-30T06:27:54.011Z,35.21
2023-04-30T06:30:12.937Z,35.29
2023-04-30T06:31:12.928Z,35.25
2023-04-30T06:32:12.943Z,35.23
2023-04-30T06:33:12.933Z,35.21
2023-04-30T06:34:12.929Z,35.19
2023-04-30T06:35:12.924Z,35.20
2023-04-30T06:36:12.909Z,35.17
2023-04-30T06:37:12.921Z,35.17
2023-04-30T06:38:12.881Z,35.15
2023-04-30T06:39:12.919Z,35.15
2023-04-30T06:40:12.902Z,35.15
2023-04-30T06:41:12.868Z,35.15
2023-04-30T06:42:12.900Z,35.12
2023-04-30T06:43:12.882Z,35.13
2023-04-30T06:44:12.933Z,35.13
2023-04-30T06:45:12.851Z,35.11
2023-04-30T06:46:12.881Z,35.13
2023-04-30T06:47:12.847Z,35.13
2023-04-30T06:48:12.850Z,35.14
2023-04-30T06:49:12.865Z,35.12
2023-04-30T06:50:12.814Z,35.12
2023-04-30T06:51:12.817Z,35.13
2023-04-30T06:52:12.933Z,35.11
2023-04-30T06:53:12.878Z,35.10
2023-04-30T06:54:12.819Z,35.09
2023-04-30T06:55:12.787Z,35.07
2023-04-30T06:56:12.793Z,35.08
2023-04-30T06:57:12.820Z,35.08
2023-04-30T06:58:12.840Z,35.10
2023-04-30T06:59:12.800Z,35.09
2023-04-30T07:00:12.804Z,35.08
2023-04-30T07:01:12.806Z,35.09
2023-04-30T07:02:12.836Z,35.06
2023-04-30T07:03:13.004Z,35.05
2023-04-30T07:04:12.831Z,35.02
2023-04-30T07:05:12.845Z,35.02
2023-04-30T07:06:12.870Z,35.04
2023-04-30T07:07:12.778Z,35.02
2023-04-30T07:08:12.759Z,35.05
2023-04-30T07:09:12.787Z,35.02
2023-04-30T07:10:12.762Z,34.99
2023-04-30T07:11:12.782Z,34.98
2023-04-30T07:12:12.761Z,34.96
2023-04-30T07:13:12.770Z,34.98
2023-04-30T07:14:12.742Z,34.93
2023-04-30T07:15:12.767Z,34.94
2023-04-30T07:16:13.729Z,34.95
2023-04-30T07:17:12.741Z,34.91
2023-04-30T07:18:12.762Z,34.94
2023-04-30T07:19:12.728Z,34.92
2023-04-30T07:20:12.729Z,34.92
2023-04-30T07:21:12.718Z,34.92
2023-04-30T07:22:12.702Z,34.96
2023-04-30T07:23:12.811Z,34.92
2023-04-30T07:24:12.751Z,34.94
2023-04-30T07:25:12.729Z,34.94
2023-04-30T07:26:12.739Z,34.92
2023-04-30T07:27:12.726Z,34.93
2023-04-30T07:28:12.754Z,34.94
2023-04-30T07:29:12.829Z,34.91
2023-04-30T07:30:12.809Z,34.91
2023-04-30T07:31:12.881Z,34.89
2023-04-30T07:32:12.810Z,34.91
2023-04-30T07:33:12.901Z,34.87
2023-04-30T07:34:12.798Z,34.87
2023-04-30T07:35:12.842Z,34.91
2023-04-30T07:36:12.836Z,34.87
2023-04-30T07:37:12.824Z,34.84
2023-04-30T07:38:12.869Z,34.86
2023-04-30T07:39:12.875Z,34.87
2023-04-30T07:40:15.244Z,34.84
2023-04-30T07:41:12.862Z,34.85
2023-04-30T07:42:12.834Z,34.84
2023-04-30T07:43:12.869Z,34.84
2023-04-30T07:44:12.839Z,34.85
2023-04-30T07:45:12.789Z,34.84
2023-04-30T07:46:12.851Z,34.83
2023-04-30T07:47:12.801Z,34.81
2023-04-30T07:48:12.770Z,34.80
2023-04-30T07:49:12.795Z,34.80
2023-04-30T07:50:12.788Z,34.83
2023-04-30T07:51:12.762Z,34.78
2023-04-30T07:52:12.772Z,34.81
2023-04-30T07:53:12.767Z,34.81
2023-04-30T07:54:12.726Z,34.75
2023-04-30T07:55:12.779Z,34.78
2023-04-30T07:56:12.734Z,34.76
2023-04-30T07:57:12.738Z,34.76
2023-04-30T07:58:12.715Z,34.74
2023-04-30T07:59:12.714Z,34.73
2023-04-30T08:00:12.712Z,34.68
2023-04-30T08:01:12.696Z,34.73
2023-04-30T08:02:12.728Z,34.72
2023-04-30T08:03:12.852Z,34.72
2023-04-30T08:04:12.842Z,34.73
2023-04-30T08:05:12.665Z,34.72
2023-04-30T08:06:12.760Z,34.72
2023-04-30T08:07:12.648Z,34.70
2023-04-30T08:08:12.669Z,34.69
2023-04-30T08:09:12.665Z,34.70
2023-04-30T08:10:12.641Z,34.66
2023-04-30T08:11:12.628Z,34.68
2023-04-30T08:12:12.603Z,34.65
2023-04-30T08:13:12.594Z,34.66
2023-04-30T08:14:12.615Z,34.59
2023-04-30T08:15:12.580Z,34.60
2023-04-30T08:16:12.588Z,34.63
2023-04-30T08:17:12.580Z,34.60
2023-04-30T08:18:12.586Z,34.59
2023-04-30T08:19:12.555Z,34.55
2023-04-30T08:20:12.551Z,34.55
2023-04-30T08:21:12.533Z,34.55
2023-04-30T08:22:12.535Z,34.60
2023-04-30T08:23:12.550Z,34.55
2023-04-30T08:24:12.534Z,34.50
2023-04-30T08:25:12.492Z,34.51
2023-04-30T08:26:12.492Z,34.51
2023-04-30T08:27:12.490Z,34.50
2023-04-30T08:28:12.471Z,34.51
2023-04-30T08:29:12.477Z,34.50
2023-04-30T08:30:12.455Z,34.52
2023-04-30T08:31:12.440Z,34.47
2023-04-30T08:32:12.600Z,34.50
2023-04-30T08:33:12.524Z,34.50
2023-04-30T08:34:12.423Z,34.50
2023-04-30T08:35:12.375Z,34.48
2023-04-30T08:36:12.394Z,34.50
2023-04-30T08:37:12.386Z,34.46
2023-04-30T08:38:12.353Z,34.48
2023-04-30T08:39:12.361Z,34.45
2023-04-30T08:40:12.380Z,34.43
2023-04-30T08:41:12.334Z,34.41
2023-04-30T08:42:12.309Z,34.42
2023-04-30T08:43:12.313Z,34.43
2023-04-30T08:44:12.318Z,34.42
2023-04-30T08:45:12.263Z,34.43
2023-04-30T08:46:12.333Z,34.41
2023-04-30T08:47:12.284Z,34.41
2023-04-30T08:48:12.288Z,34.39
2023-04-30T08:49:12.282Z,34.40
2023-04-30T08:50:12.263Z,34.41
2023-04-30T08:51:12.250Z,34.38
2023-04-30T08:52:12.244Z,34.39
2023-04-30T08:53:12.201Z,34.38
2023-04-30T08:54:12.276Z,34.38
2023-04-30T08:55:12.188Z,34.39
2023-04-30T08:56:12.186Z,34.39
2023-04-30T08:57:12.164Z,34.35
2023-04-30T08:58:12.170Z,34.37
2023-04-30T08:59:12.128Z,34.36
2023-04-30T09:00:12.108Z,34.34
2023-04-30T09:01:12.152Z,34.35
2023-04-30T09:02:12.301Z,34.37
2023-04-30T09:03:12.176Z,34.34
2023-04-30T09:04:12.087Z,34.35
2023-04-30T09:05:12.116Z,34.34
2023-04-30T09:06:12.160Z,34.34
2023-04-30T09:07:12.164Z,34.35
2023-04-30T09:08:12.179Z,34.35
2023-04-30T09:09:12.176Z,34.34
2023-04-30T09:10:12.167Z,34.34
2023-04-30T09:11:12.232Z,34.32
2023-04-30T09:12:12.224Z,34.31
2023-04-30T09:13:12.267Z,34.34
2023-04-30T09:14:12.260Z,34.31
2023-04-30T09:15:12.221Z,34.31
2023-04-30T09:16:12.292Z,34.32
2023-04-30T09:17:12.287Z,34.30
2023-04-30T09:18:12.452Z,34.30
2023-04-30T09:19:12.357Z,34.27
2023-04-30T09:20:12.356Z,34.28
2023-04-30T09:21:12.381Z,34.27
2023-04-30T09:22:12.396Z,34.23
2023-04-30T09:23:12.422Z,34.24
2023-04-30T09:24:12.446Z,34.24
2023-04-30T09:25:12.503Z,34.22
2023-04-30T09:26:12.557Z,34.21
2023-04-30T09:27:12.627Z,34.22
2023-04-30T09:28:12.616Z,34.21
2023-04-30T09:29:12.717Z,34.19
2023-04-30T09:30:12.756Z,34.18
2023-04-30T09:31:12.824Z,34.19
2023-04-30T09:32:12.846Z,34.19
2023-04-30T09:33:12.900Z,34.19
2023-04-30T09:34:12.875Z,34.20
2023-04-30T09:35:12.922Z,34.22
2023-04-30T09:36:12.950Z,34.20
2023-04-30T09:37:13.035Z,34.19
2023-04-30T09:38:13.069Z,34.18
2023-04-30T09:39:15.304Z,34.16
2023-04-30T09:40:13.131Z,34.18
2023-04-30T09:41:13.130Z,34.17
2023-04-30T09:42:13.109Z,34.17
2023-04-30T09:43:13.123Z,34.15
2023-04-30T09:44:13.092Z,34.15
2023-04-30T09:45:13.095Z,34.15
2023-04-30T09:46:13.117Z,34.15
2023-04-30T09:47:13.172Z,34.14
2023-04-30T09:48:17.160Z,34.14
2023-04-30T09:49:13.072Z,34.14
2023-04-30T09:50:13.048Z,34.15
2023-04-30T09:51:13.053Z,34.13
2023-04-30T09:52:13.065Z,34.14
2023-04-30T09:53:13.087Z,34.13
2023-04-30T09:54:13.070Z,34.10
2023-04-30T09:55:13.044Z,34.09
2023-04-30T09:56:13.009Z,34.10
2023-04-30T09:57:13.021Z,34.10
2023-04-30T09:58:13.048Z,34.08
2023-04-30T09:59:13.035Z,34.07
2023-04-30T10:00:13.008Z,34.08
2023-04-30T10:01:13.029Z,34.08
2023-04-30T10:02:13.047Z,34.08
2023-04-30T10:03:13.320Z,34.05
2023-04-30T10:04:13.120Z,34.07
2023-04-30T10:05:13.166Z,34.07
2023-04-30T10:06:13.250Z,34.05
2023-04-30T10:07:15.369Z,34.05
2023-04-30T10:08:13.258Z,34.04
2023-04-30T10:09:13.246Z,34.02
2023-04-30T10:10:13.254Z,34.04
2023-04-30T10:11:13.206Z,34.03
2023-04-30T10:12:13.203Z,34.05
2023-04-30T10:13:13.191Z,34.03
2023-04-30T10:14:13.186Z,34.05
2023-04-30T10:15:13.209Z,34.01
2023-04-30T10:16:13.253Z,34.02
2023-04-30T10:17:13.205Z,34.01
2023-04-30T10:18:13.228Z,33.99
2023-04-30T10:19:13.162Z,33.99
2023-04-30T10:20:13.166Z,33.98
2023-04-30T10:21:13.153Z,33.98
2023-04-30T10:22:13.169Z,33.99
2023-04-30T10:23:13.149Z,33.96
2023-04-30T10:24:13.124Z,33.97
2023-04-30T10:25:13.149Z,33.97
2023-04-30T10:26:13.117Z,33.96
2023-04-30T10:27:13.114Z,33.99
2023-04-30T10:28:13.141Z,33.95
2023-04-30T10:29:13.075Z,33.95
2023-04-30T10:30:13.115Z,33.96
2023-04-30T10:31:13.090Z,33.96
2023-04-30T10:32:13.117Z,33.95
2023-04-30T10:33:15.703Z,33.96
2023-04-30T10:34:13.045Z,33.95
2023-04-30T10:35:13.061Z,33.96
2023-04-30T10:36:13.036Z,33.95
2023-04-30T10:37:13.007Z,33.95
2023-04-30T10:38:12.990Z,33.97
2023-04-30T10:39:13.019Z,33.93
2023-04-30T10:40:13.021Z,33.94
2023-04-30T10:41:12.953Z,33.95
2023-04-30T10:42:12.958Z,33.92
2023-04-30T10:43:12.954Z,33.93
2023-04-30T10:44:12.961Z,33.91
2023-04-30T10:45:12.932Z,33.92
2023-04-30T10:46:13.004Z,33.89
2023-04-30T10:47:12.913Z,33.91
2023-04-30T10:48:12.968Z,33.89
2023-04-30T10:49:12.898Z,33.86
2023-04-30T10:50:12.889Z,33.88
2023-04-30T10:51:12.894Z,33.87
2023-04-30T10:52:12.880Z,33.86
2023-04-30T10:53:12.849Z,33.87
2023-04-30T10:54:12.872Z,33.85
2023-04-30T10:55:12.883Z,33.86
2023-04-30T10:56:12.839Z,33.86
2023-04-30T10:57:12.807Z,33.87
2023-04-30T10:58:12.864Z,33.86
2023-04-30T10:59:12.849Z,33.82
2023-04-30T11:00:12.850Z,33.85
2023-04-30T11:01:12.868Z,33.83
2023-04-30T11:02:12.801Z,33.81
2023-04-30T11:03:12.819Z,33.79
2023-04-30T11:04:12.761Z,33.77
2023-04-30T11:05:12.890Z,33.78
2023-04-30T11:06:12.799Z,33.78
2023-04-30T11:07:12.782Z,33.76
2023-04-30T11:08:12.786Z,33.75
2023-04-30T11:09:12.807Z,33.75
2023-04-30T11:10:12.879Z,33.76
2023-04-30T11:11:12.862Z,33.76
2023-04-30T11:12:12.898Z,33.75
2023-04-30T11:13:12.970Z,33.75
2023-04-30T11:14:13.015Z,33.75
2023-04-30T11:15:13.053Z,33.76
2023-04-30T11:16:13.158Z,33.71
2023-04-30T11:17:13.143Z,33.72
2023-04-30T11:18:13.211Z,33.73
2023-04-30T11:19:13.249Z,33.71
2023-04-30T11:20:13.244Z,33.71
2023-04-30T11:21:13.279Z,33.72
2023-04-30T11:22:13.366Z,33.71
2023-04-30T11:23:17.486Z,33.71
2023-04-30T11:24:14.393Z,33.70
2023-04-30T11:25:13.415Z,33.72
2023-04-30T11:26:13.398Z,33.73
2023-04-30T11:27:13.376Z,33.72
2023-04-30T11:28:13.384Z,33.69
2023-04-30T11:29:13.461Z,33.65
2023-04-30T11:30:13.352Z,33.66
2023-04-30T11:31:15.147Z,33.67
2023-04-30T11:32:13.334Z,33.66
2023-04-30T11:33:13.328Z,33.68
2023-04-30T11:34:13.373Z,33.68
2023-04-30T11:35:13.434Z,33.65
2023-04-30T11:36:13.452Z,33.68
2023-04-30T11:37:13.504Z,33.64
2023-04-30T11:38:13.514Z,33.65
2023-04-30T11:39:13.606Z,33.65
2023-04-30T11:40:13.670Z,33.66
2023-04-30T11:41:13.665Z,33.66
2023-04-30T11:42:13.705Z,33.65
2023-04-30T11:43:13.780Z,33.65
2023-04-30T11:44:13.840Z,33.67
2023-04-30T11:45:13.872Z,33.67
2023-04-30T11:46:14.035Z,33.66
2023-04-30T11:47:13.938Z,33.61
2023-04-30T11:48:14.000Z,33.67
2023-04-30T11:49:14.051Z,33.63
2023-04-30T11:50:14.229Z,33.62
2023-04-30T11:51:14.149Z,33.62
2023-04-30T11:52:14.174Z,33.61
2023-04-30T11:53:14.223Z,33.61
2023-04-30T11:54:14.285Z,33.61
2023-04-30T11:55:14.316Z,33.58
2023-04-30T11:56:14.346Z,33.59
2023-04-30T11:57:14.386Z,33.59
2023-04-30T11:58:14.508Z,33.60
2023-04-30T11:59:14.482Z,33.56
2023-04-30T12:00:14.508Z,33.55
2023-04-30T12:01:14.564Z,33.58
2023-04-30T12:02:14.641Z,33.58
2023-04-30T12:03:14.697Z,33.55
2023-04-30T12:04:14.851Z,33.55
2023-04-30T12:05:14.704Z,33.56
2023-04-30T12:06:14.769Z,33.56
2023-04-30T12:07:14.808Z,33.55
2023-04-30T12:08:14.834Z,33.55
2023-04-30T12:09:14.908Z,33.55
2023-04-30T12:10:14.931Z,33.54
2023-04-30T12:11:14.981Z,33.55
2023-04-30T12:12:15.022Z,33.55
2023-04-30T12:13:15.050Z,33.54
2023-04-30T12:14:15.129Z,33.54
2023-04-30T12:15:15.168Z,33.54
2023-04-30T12:16:15.324Z,33.52
2023-04-30T12:17:15.275Z,33.52
2023-04-30T12:18:15.336Z,33.51
2023-04-30T12:19:15.377Z,33.51
2023-04-30T12:20:15.388Z,33.51
2023-04-30T12:21:15.580Z,33.49
2023-04-30T12:22:15.483Z,33.49
2023-04-30T12:23:15.523Z,33.48
2023-04-30T12:24:15.585Z,33.48
2023-04-30T12:25:15.639Z,33.48
2023-04-30T12:26:15.701Z,33.48
2023-04-30T12:27:15.726Z,33.48
2023-04-30T12:28:15.759Z,33.49
2023-04-30T12:29:15.839Z,33.49
2023-04-30T12:30:15.863Z,33.48
2023-04-30T12:31:15.849Z,33.44
2023-04-30T12:32:15.918Z,33.45
2023-04-30T12:33:16.012Z,33.44
2023-04-30T12:34:16.019Z,33.45
2023-04-30T12:35:16.086Z,33.44
2023-04-30T12:36:16.118Z,33.46
2023-04-30T12:37:16.147Z,33.46
2023-04-30T12:38:16.190Z,33.43
2023-04-30T12:39:16.382Z,33.44
2023-04-30T12:40:16.296Z,33.43
2023-04-30T12:41:16.359Z,33.41
2023-04-30T12:42:16.382Z,33.41
2023-04-30T12:43:16.386Z,33.43
2023-04-30T12:44:16.473Z,33.42
2023-04-30T12:45:16.511Z,33.39
2023-04-30T12:46:16.619Z,33.38
2023-04-30T12:47:16.599Z,33.38
2023-04-30T12:48:16.829Z,33.35
2023-04-30T12:49:16.731Z,33.36
2023-04-30T12:50:16.768Z,33.34
2023-04-30T12:51:16.785Z,33.34
2023-04-30T12:52:16.822Z,33.33
2023-04-30T12:53:16.886Z,33.29
2023-04-30T12:54:16.909Z,33.28